Time;durP1;ratioP1;P1;durP2;ratioP2;P2;SDS_P1;SDS_P2;PMS_P1;PMS_P2;Temp;Humidity;BMP_temperature;BMP_pressure;BME280_temperature;BME280_humidity;BME280_pressure;Samples;Min_cycle;Max_cycle;Signal;HPM_P1;HPM_P2
2021/11/09 00:00:48;;;;;;;7.15;3.47;;;;;12.50;102323.00;;;;5041638;28;20238;-84
2021/11/09 00:03:16;;;;;;;10.73;4.22;;;;;12.50;102316.00;;;;5049983;28;20206;-84
2021/11/09 00:05:50;;;;;;;7.65;3.67;;;;;12.50;102312.00;;;;5048316;28;20196;-83
2021/11/09 00:08:22;;;;;;;8.68;4.05;;;;;12.40;102316.00;;;;5035789;28;20206;-83
2021/11/09 00:10:50;;;;;;;11.75;3.97;;;;;12.40;102326.00;;;;5035907;28;20212;-84
2021/11/09 00:13:17;;;;;;;9.27;3.97;;;;;12.40;102327.00;;;;5033092;28;20196;-84
2021/11/09 00:15:45;;;;;;;6.25;3.70;;;;;12.40;102325.00;;;;5034543;28;20216;-83
2021/11/09 00:18:13;;;;;;;7.25;3.92;;;;;12.40;102326.00;;;;5029125;28;20212;-84
2021/11/09 00:20:42;;;;;;;6.00;3.22;;;;;12.30;102325.00;;;;5029386;28;20308;-83
2021/11/09 00:23:10;;;;;;;4.95;3.10;;;;;12.30;102325.00;;;;5034313;28;20196;-83
2021/11/09 00:25:40;;;;;;;6.60;3.10;;;;;12.30;102322.00;;;;5044796;28;20197;-83
2021/11/09 00:28:09;;;;;;;6.60;3.50;;;;;12.30;102321.00;;;;5038832;28;20196;-84
2021/11/09 00:30:37;;;;;;;5.72;3.00;;;;;12.30;102322.00;;;;5040098;28;20266;-83
2021/11/09 00:33:06;;;;;;;6.10;2.83;;;;;12.20;102321.00;;;;5033812;28;20196;-83
2021/11/09 00:35:35;;;;;;;4.63;2.80;;;;;12.20;102320.00;;;;5035781;28;20196;-83
2021/11/09 00:38:06;;;;;;;7.72;3.17;;;;;12.20;102319.00;;;;5035446;28;20200;-84
2021/11/09 00:40:36;;;;;;;7.40;3.03;;;;;12.20;102315.00;;;;5032260;28;20223;-84
2021/11/09 00:43:07;;;;;;;7.05;3.05;;;;;12.10;102311.00;;;;5036443;28;20194;-84
2021/11/09 00:45:34;;;;;;;6.22;3.00;;;;;12.10;102308.00;;;;5035586;28;20330;-83
2021/11/09 00:48:02;;;;;;;8.57;3.30;;;;;12.10;102306.00;;;;5029966;28;20204;-83
2021/11/09 00:50:31;;;;;;;3.55;2.88;;;;;12.10;102309.00;;;;5029307;28;20227;-83
2021/11/09 00:52:59;;;;;;;4.03;2.63;;;;;12.10;102309.00;;;;5031875;28;20188;-84
2021/11/09 00:55:28;;;;;;;6.50;3.38;;;;;12.10;102317.00;;;;5029884;28;20689;-83
2021/11/09 00:57:56;;;;;;;4.30;2.88;;;;;12.10;102314.00;;;;5031016;28;20192;-84
2021/11/09 01:00:28;;;;;;;6.07;2.95;;;;;12.00;102319.00;;;;5030863;28;20230;-84
2021/11/09 01:02:56;;;;;;;5.50;3.08;;;;;12.00;102322.00;;;;5046238;28;20203;-83
2021/11/09 01:05:25;;;;;;;6.78;3.60;;;;;12.00;102322.00;;;;5032617;28;20323;-84
2021/11/09 01:07:56;;;;;;;3.72;2.72;;;;;12.00;102318.00;;;;5041606;28;20204;-84
2021/11/09 01:10:25;;;;;;;5.30;2.85;;;;;12.00;102319.00;;;;5046059;28;20196;-83
2021/11/09 01:12:52;;;;;;;6.55;3.03;;;;;12.00;102310.00;;;;5047880;28;20673;-83
2021/11/09 01:15:21;;;;;;;6.28;3.25;;;;;11.90;102315.00;;;;5032077;28;20204;-84
2021/11/09 01:17:50;;;;;;;6.50;3.08;;;;;11.90;102314.00;;;;5031430;28;20212;-83
2021/11/09 01:20:22;;;;;;;5.65;2.95;;;;;11.90;102327.00;;;;5046651;28;20222;-84
2021/11/09 01:22:51;;;;;;;6.50;2.90;;;;;11.90;102321.00;;;;5043374;28;20657;-83
2021/11/09 01:25:20;;;;;;;5.30;2.47;;;;;11.90;102327.00;;;;5028829;28;20608;-84
2021/11/09 01:27:47;;;;;;;5.13;2.90;;;;;11.90;102322.00;;;;5027558;28;20227;-84
2021/11/09 01:30:17;;;;;;;4.43;2.58;;;;;11.80;102320.00;;;;5044102;28;20199;-83
2021/11/09 01:32:44;;;;;;;3.55;2.58;;;;;11.80;102320.00;;;;5047756;28;20200;-83
2021/11/09 01:35:13;;;;;;;5.13;2.80;;;;;11.80;102319.00;;;;5044377;28;20212;-83
2021/11/09 01:37:40;;;;;;;5.28;2.85;;;;;11.80;102322.00;;;;5036433;28;20207;-83
2021/11/09 01:40:09;;;;;;;4.50;3.10;;;;;11.80;102316.00;;;;5029134;28;20224;-83
2021/11/09 01:42:37;;;;;;;5.03;3.08;;;;;11.80;102316.00;;;;5028504;28;20212;-83
2021/11/09 01:45:06;;;;;;;3.55;2.58;;;;;11.80;102324.00;;;;5028094;28;20207;-83
2021/11/09 01:47:34;;;;;;;5.07;2.90;;;;;11.80;102325.00;;;;5041336;28;20200;-82
2021/11/09 01:50:01;;;;;;;4.32;3.30;;;;;11.80;102326.00;;;;5035154;28;20227;-83
2021/11/09 01:52:29;;;;;;;4.05;2.78;;;;;11.70;102320.00;;;;5047933;28;20203;-83
2021/11/09 01:54:57;;;;;;;4.85;3.30;;;;;11.70;102325.00;;;;5039517;28;20208;-83
2021/11/09 01:57:25;;;;;;;8.27;3.22;;;;;11.70;102329.00;;;;5048544;28;20207;-83
2021/11/09 01:59:57;;;;;;;3.13;2.70;;;;;11.70;102334.00;;;;5040113;28;20223;-84
2021/11/09 02:02:25;;;;;;;4.47;2.67;;;;;11.70;102329.00;;;;5038684;28;20191;-83
2021/11/09 02:04:53;;;;;;;4.88;2.92;;;;;11.70;102329.00;;;;5036088;28;20215;-83
2021/11/09 02:07:20;;;;;;;5.93;3.33;;;;;11.70;102331.00;;;;5038533;28;20207;-84
2021/11/09 02:09:49;;;;;;;4.20;2.97;;;;;11.60;102325.00;;;;5036163;28;20219;-84
2021/11/09 02:12:16;;;;;;;6.35;2.80;;;;;11.60;102315.00;;;;5035365;28;20589;-84
2021/11/09 02:14:43;;;;;;;7.07;3.10;;;;;11.60;102312.00;;;;5030216;28;20208;-84
2021/11/09 02:17:11;;;;;;;6.35;3.15;;;;;11.60;102313.00;;;;5028682;28;20208;-84
2021/11/09 02:19:39;;;;;;;6.30;3.25;;;;;11.60;102308.00;;;;5028338;28;20259;-83
2021/11/09 02:22:08;;;;;;;16.08;4.68;;;;;11.60;102313.00;;;;5027188;28;20632;-83
2021/11/09 02:24:35;;;;;;;5.03;2.80;;;;;11.60;102314.00;;;;5035595;28;20207;-83
2021/11/09 02:27:04;;;;;;;4.63;2.53;;;;;11.60;102321.00;;;;5035096;28;20286;-84
2021/11/09 02:29:31;;;;;;;4.85;2.53;;;;;11.60;102314.00;;;;5035942;28;20195;-83
2021/11/09 02:31:59;;;;;;;8.15;3.20;;;;;11.50;102313.00;;;;5040334;28;20564;-82
2021/11/09 02:34:26;;;;;;;4.97;3.03;;;;;11.50;102305.00;;;;5044859;28;20195;-83
2021/11/09 02:36:54;;;;;;;4.47;3.47;;;;;11.50;102309.00;;;;5030316;28;20242;-83
2021/11/09 02:39:23;;;;;;;4.13;2.95;;;;;11.50;102298.00;;;;5030134;28;20270;-83
2021/11/09 02:41:51;;;;;;;4.53;2.97;;;;;11.50;102294.00;;;;5046676;28;20223;-84
2021/11/09 02:44:21;;;;;;;7.47;3.35;;;;;11.50;102297.00;;;;5038450;28;20282;-84
2021/11/09 02:46:51;;;;;;;6.07;3.40;;;;;11.50;102292.00;;;;5036348;28;20267;-83
2021/11/09 02:49:23;;;;;;;5.57;3.03;;;;;11.40;102296.00;;;;5039466;28;20204;-83
2021/11/09 02:51:53;;;;;;;6.53;3.88;;;;;11.40;102288.00;;;;5042964;28;20239;-83
2021/11/09 02:54:26;;;;;;;4.70;2.90;;;;;11.40;102285.00;;;;5040433;28;20211;-83
2021/11/09 02:56:57;;;;;;;5.65;3.17;;;;;11.40;102287.00;;;;5051942;28;20242;-83
2021/11/09 02:59:45;;;;;;;3.67;2.88;;;;;11.40;102293.00;;;;5051334;28;20204;-83
2021/11/09 03:02:19;;;;;;;7.20;3.38;;;;;11.40;102296.00;;;;5051118;28;20318;-83
2021/11/09 03:05:03;;;;;;;5.35;3.25;;;;;11.40;102297.00;;;;5032305;28;20287;-83
2021/11/09 03:07:35;;;;;;;7.38;2.75;;;;;11.30;102298.00;;;;5031430;28;20188;-83
2021/11/09 03:10:08;;;;;;;5.38;3.40;;;;;11.30;102301.00;;;;5032101;28;20223;-83
2021/11/09 03:12:38;;;;;;;6.88;2.72;;;;;11.30;102300.00;;;;5031879;28;20191;-83
2021/11/09 03:15:08;;;;;;;10.60;3.53;;;;;11.30;102304.00;;;;5049591;28;20239;-83
2021/11/09 03:17:41;;;;;;;7.18;3.63;;;;;11.30;102307.00;;;;5051061;28;20658;-82
2021/11/09 03:20:14;;;;;;;7.38;3.85;;;;;11.30;102314.00;;;;5049642;28;20228;-83
2021/11/09 03:44:58;;;;;;;5.38;2.80;;;;;11.10;102312.00;;;;5041850;28;20354;-83
2021/11/09 03:47:25;;;;;;;5.97;2.88;;;;;11.10;102307.00;;;;5031030;28;20304;-84
2021/11/09 03:49:54;;;;;;;6.05;3.33;;;;;11.10;102307.00;;;;5030218;28;20240;-83
2021/11/09 03:52:25;;;;;;;6.68;3.50;;;;;11.10;102317.00;;;;5030668;28;20228;-83
2021/11/09 03:55:00;;;;;;;6.25;3.50;;;;;11.10;102311.00;;;;5031447;28;20200;-83
2021/11/09 03:57:31;;;;;;;5.18;3.08;;;;;11.10;102307.00;;;;5038477;28;20195;-84
2021/11/09 04:00:13;;;;;;;7.78;3.10;;;;;11.10;102305.00;;;;5031048;28;20188;-83
2021/11/09 04:02:52;;;;;;;5.80;2.75;;;;;11.10;102308.00;;;;5030633;28;20637;-84
2021/11/09 04:05:22;;;;;;;5.88;3.47;;;;;11.10;102310.00;;;;5030028;28;20828;-83
2021/11/09 04:07:58;;;;;;;5.20;3.95;;;;;11.10;102313.00;;;;5034589;28;20195;-83
2021/11/09 04:10:34;;;;;;;5.38;3.40;;;;;11.00;102320.00;;;;5030719;28;20215;-83
2021/11/09 04:18:45;;;;;;;5.40;3.60;;;;;11.00;102332.00;;;;5023333;28;20227;-84
2021/11/09 04:21:26;;;;;;;5.75;3.60;;;;;11.00;102332.00;;;;5029989;28;20227;-83
2021/11/09 04:24:16;;;;;;;7.00;2.78;;;;;11.00;102333.00;;;;5030744;28;20196;-83
2021/11/09 04:27:01;;;;;;;5.30;2.83;;;;;11.00;102331.00;;;;5030776;28;20203;-83
2021/11/09 04:29:51;;;;;;;4.03;3.00;;;;;11.00;102328.00;;;;5050438;28;20204;-83
2021/11/09 04:52:20;;;;;;;5.18;3.58;;;;;10.90;102336.00;;;;5029978;28;20243;-83
2021/11/09 05:03:08;;;;;;;7.38;3.40;;;;;10.80;102343.00;;;;5028886;28;20192;-83
2021/11/09 05:11:04;;;;;;;7.63;4.20;;;;;10.80;102338.00;;;;5029492;28;20249;-83
2021/11/09 05:13:32;;;;;;;8.98;3.97;;;;;10.80;102342.00;;;;5029331;28;20203;-83
2021/11/09 05:15:59;;;;;;;6.78;3.60;;;;;10.90;102334.00;;;;5038386;28;20227;-82
2021/11/09 05:18:28;;;;;;;6.75;3.95;;;;;10.80;102346.00;;;;5035692;28;20200;-83
2021/11/09 05:20:55;;;;;;;10.90;4.03;;;;;10.90;102344.00;;;;5030867;28;20575;-83
2021/11/09 05:23:23;;;;;;;4.95;3.35;;;;;10.90;102343.00;;;;5028782;28;20678;-83
2021/11/09 05:25:51;;;;;;;5.80;3.70;;;;;10.90;102346.00;;;;5039556;28;20196;-83
2021/11/09 05:28:19;;;;;;;5.50;4.15;;;;;10.90;102348.00;;;;5039587;28;20203;-84
2021/11/09 05:30:48;;;;;;;6.18;3.92;;;;;10.90;102343.00;;;;5044513;28;20191;-83
2021/11/09 05:33:17;;;;;;;10.55;4.70;;;;;10.90;102342.00;;;;5047994;28;20192;-84
2021/11/09 05:35:46;;;;;;;8.10;4.03;;;;;10.90;102340.00;;;;5048991;28;20199;-83
2021/11/09 05:38:16;;;;;;;6.72;4.45;;;;;10.90;102341.00;;;;5036981;28;20227;-82
2021/11/09 05:40:52;;;;;;;7.85;3.45;;;;;10.90;102348.00;;;;5048437;28;20219;-82
2021/11/09 05:43:20;;;;;;;6.13;4.38;;;;;10.90;102352.00;;;;5033987;28;20208;-82
2021/11/09 05:45:47;;;;;;;8.57;4.70;;;;;10.90;102348.00;;;;5029143;28;20681;-82
2021/11/09 05:48:15;;;;;;;8.52;4.57;;;;;10.90;102347.00;;;;5040013;28;20204;-81
2021/11/09 05:50:42;;;;;;;6.88;4.22;;;;;10.90;102349.00;;;;5034383;28;20314;-82
2021/11/09 05:53:11;;;;;;;7.53;4.43;;;;;10.90;102358.00;;;;5041078;28;20200;-81
2021/11/09 05:55:38;;;;;;;8.85;4.78;;;;;11.00;102365.00;;;;5035244;28;20196;-80
2021/11/09 05:58:05;;;;;;;11.07;4.43;;;;;11.00;102367.00;;;;5030272;28;20208;-81
2021/11/09 06:00:33;;;;;;;10.07;5.63;;;;;11.00;102371.00;;;;5032128;28;20189;-82
2021/11/09 06:03:00;;;;;;;6.35;4.43;;;;;11.00;102373.00;;;;5042635;28;20192;-81
2021/11/09 06:05:27;;;;;;;7.30;5.05;;;;;11.00;102362.00;;;;5037801;28;20195;-81
2021/11/09 06:07:54;;;;;;;8.13;4.35;;;;;11.00;102370.00;;;;5034544;28;20202;-81
2021/11/09 06:10:23;;;;;;;7.15;4.72;;;;;11.00;102371.00;;;;5040613;28;20684;-80
2021/11/09 06:12:50;;;;;;;9.57;4.45;;;;;11.00;102362.00;;;;5032557;28;20238;-81
2021/11/09 06:15:18;;;;;;;7.85;4.72;;;;;11.00;102371.00;;;;5031948;28;20195;-81
2021/11/09 06:17:46;;;;;;;10.23;5.13;;;;;11.00;102369.00;;;;5032628;28;20247;-81
2021/11/09 06:20:13;;;;;;;6.47;4.53;;;;;11.10;102371.00;;;;5037064;28;20303;-81
2021/11/09 06:22:42;;;;;;;7.88;4.85;;;;;11.00;102372.00;;;;5040980;28;20230;-82
2021/11/09 06:25:09;;;;;;;8.70;5.05;;;;;11.10;102384.00;;;;5037567;28;20207;-81
2021/11/09 06:27:38;;;;;;;11.40;5.55;;;;;11.00;102376.00;;;;5038551;28;20211;-81
2021/11/09 06:30:06;;;;;;;9.75;5.10;;;;;11.10;102388.00;;;;5038619;28;20193;-81
2021/11/09 06:32:34;;;;;;;7.60;4.55;;;;;11.10;102390.00;;;;5041538;28;20197;-82
2021/11/09 06:35:02;;;;;;;10.23;4.60;;;;;11.10;102386.00;;;;5032051;28;20200;-83
2021/11/09 06:37:33;;;;;;;8.15;5.00;;;;;11.10;102381.00;;;;5039712;28;20207;-83
2021/11/09 06:40:00;;;;;;;11.85;5.30;;;;;11.10;102386.00;;;;5034118;28;20314;-83
2021/11/09 06:42:27;;;;;;;13.82;5.57;;;;;11.10;102378.00;;;;5038996;28;20600;-84
2021/11/09 06:44:56;;;;;;;10.00;4.50;;;;;11.10;102381.00;;;;5051482;28;20230;-85
2021/11/09 06:47:23;;;;;;;15.88;5.63;;;;;11.10;102381.00;;;;5040531;28;20301;-84
2021/11/09 06:49:51;;;;;;;7.88;5.25;;;;;11.10;102387.00;;;;5030641;28;20200;-84
2021/11/09 06:52:18;;;;;;;8.43;5.55;;;;;11.10;102385.00;;;;5040751;28;20204;-82
2021/11/09 06:54:46;;;;;;;9.23;4.57;;;;;11.10;102393.00;;;;5046534;28;20199;-81
2021/11/09 06:57:14;;;;;;;10.63;5.03;;;;;11.10;102397.00;;;;5031827;28;20200;-83
2021/11/09 06:59:41;;;;;;;7.43;4.90;;;;;11.20;102399.00;;;;5036848;28;20584;-80
2021/11/09 07:02:10;;;;;;;9.98;5.38;;;;;11.20;102404.00;;;;5050151;28;20227;-77
2021/11/09 07:04:37;;;;;;;8.45;4.50;;;;;11.20;102411.00;;;;5037470;28;20278;-82
2021/11/09 07:07:05;;;;;;;7.85;4.97;;;;;11.20;102411.00;;;;5032135;28;20258;-81
2021/11/09 07:09:33;;;;;;;8.88;5.28;;;;;11.20;102421.00;;;;5040121;28;20204;-81
2021/11/09 07:12:00;;;;;;;11.88;5.25;;;;;11.20;102423.00;;;;5051239;28;20545;-82
2021/11/09 07:14:28;;;;;;;7.70;4.30;;;;;11.30;102429.00;;;;5051718;28;20199;-81
2021/11/09 07:16:55;;;;;;;8.57;4.72;;;;;11.30;102431.00;;;;5051085;28;20229;-81
2021/11/09 07:19:24;;;;;;;7.18;5.18;;;;;11.30;102441.00;;;;5049779;28;20199;-81
2021/11/09 07:21:51;;;;;;;7.05;4.50;;;;;11.30;102442.00;;;;5035605;28;20735;-82
2021/11/09 07:24:19;;;;;;;7.70;5.03;;;;;11.40;102433.00;;;;5031130;28;20200;-81
2021/11/09 07:26:46;;;;;;;8.10;4.78;;;;;11.40;102444.00;;;;5030261;28;20208;-81
2021/11/09 07:29:13;;;;;;;9.35;4.78;;;;;11.40;102443.00;;;;5031105;28;20207;-82
2021/11/09 07:31:40;;;;;;;10.13;4.85;;;;;11.40;102443.00;;;;5031394;28;20743;-80
2021/11/09 07:34:08;;;;;;;10.25;5.25;;;;;11.50;102447.00;;;;5031470;28;20215;-82
2021/11/09 07:36:37;;;;;;;9.40;5.85;;;;;11.50;102446.00;;;;5030875;28;20212;-81
2021/11/09 07:39:07;;;;;;;8.82;4.88;;;;;11.50;102448.00;;;;5033119;28;20315;-81
2021/11/09 07:41:34;;;;;;;8.57;4.35;;;;;11.50;102455.00;;;;5030738;28;20670;-82
2021/11/09 07:44:03;;;;;;;9.43;5.10;;;;;11.60;102457.00;;;;5029995;28;20192;-81
2021/11/09 07:46:31;;;;;;;6.80;5.00;;;;;11.60;102451.00;;;;5036949;28;20291;-81
2021/11/09 07:48:58;;;;;;;8.85;5.22;;;;;11.70;102453.00;;;;5040440;28;20202;-81
2021/11/09 07:51:25;;;;;;;8.90;4.65;;;;;11.70;102457.00;;;;5033777;28;20235;-81
2021/11/09 07:53:56;;;;;;;8.63;4.97;;;;;11.70;102461.00;;;;5031024;28;20196;-81
2021/11/09 07:56:25;;;;;;;8.27;4.97;;;;;11.80;102450.00;;;;5030933;28;20674;-82
2021/11/09 07:59:01;;;;;;;10.60;5.50;;;;;11.90;102458.00;;;;5046637;28;20200;-82
2021/11/09 08:01:32;;;;;;;8.70;5.60;;;;;11.90;102455.00;;;;5042077;28;20705;-82
2021/11/09 08:04:06;;;;;;;8.50;4.90;;;;;12.00;102456.00;;;;5030484;28;20196;-81
2021/11/09 08:06:44;;;;;;;9.75;4.97;;;;;12.00;102454.00;;;;5030599;28;20196;-81
2021/11/09 08:09:19;;;;;;;9.32;4.93;;;;;12.00;102464.00;;;;5029962;28;20216;-81
2021/11/09 08:11:46;;;;;;;9.38;5.20;;;;;12.10;102463.00;;;;5033782;28;20926;-81
2021/11/09 08:14:13;;;;;;;7.43;4.97;;;;;12.20;102467.00;;;;5040342;28;20215;-81
2021/11/09 08:16:42;;;;;;;9.77;4.53;;;;;12.30;102459.00;;;;5030186;28;21030;-81
2021/11/09 08:19:10;;;;;;;10.02;4.55;;;;;12.30;102464.00;;;;5037600;28;20200;-81
2021/11/09 08:21:39;;;;;;;9.60;4.70;;;;;12.40;102473.00;;;;5035415;28;20226;-82
2021/11/09 08:24:09;;;;;;;8.95;4.80;;;;;12.40;102471.00;;;;5031899;28;20228;-81
2021/11/09 08:26:39;;;;;;;8.82;5.15;;;;;12.50;102472.00;;;;5036266;28;20943;-81
2021/11/09 08:29:06;;;;;;;10.98;5.68;;;;;12.60;102475.00;;;;5032177;28;20697;-82
2021/11/09 08:31:34;;;;;;;9.30;4.95;;;;;12.70;102477.00;;;;5037676;28;20203;-82
2021/11/09 08:34:03;;;;;;;11.32;5.18;;;;;12.80;102472.00;;;;5045068;28;20187;-81
2021/11/09 08:36:31;;;;;;;9.35;4.85;;;;;12.90;102474.00;;;;5035935;28;20196;-81
2021/11/09 08:39:01;;;;;;;6.93;4.72;;;;;13.00;102471.00;;;;5042059;28;20334;-82
2021/11/09 08:41:36;;;;;;;11.88;5.00;;;;;13.10;102482.00;;;;5040549;28;20990;-81
2021/11/09 08:44:07;;;;;;;10.70;5.32;;;;;13.20;102481.00;;;;5034692;28;20579;-82
2021/11/09 08:46:38;;;;;;;12.95;6.05;;;;;13.30;102481.00;;;;5031583;28;20193;-82
2021/11/09 08:49:07;;;;;;;10.55;4.90;;;;;13.40;102472.00;;;;5049927;28;20214;-82
2021/11/09 08:51:35;;;;;;;11.55;5.47;;;;;13.50;102480.00;;;;5046881;28;20716;-82
2021/11/09 08:54:13;;;;;;;10.00;4.82;;;;;13.50;102476.00;;;;5034417;28;20193;-82
2021/11/09 09:05:01;;;;;;;13.25;4.80;;;;;13.90;102468.00;;;;5046083;28;20693;-82
2021/11/09 09:07:29;;;;;;;6.93;4.72;;;;;13.90;102477.00;;;;5044576;28;20686;-82
2021/11/09 09:09:57;;;;;;;13.48;6.10;;;;;14.00;102473.00;;;;5046858;28;20204;-82
2021/11/09 09:12:25;;;;;;;10.85;5.15;;;;;14.10;102467.00;;;;5037982;28;20197;-82
2021/11/09 09:14:56;;;;;;;9.50;4.90;;;;;14.10;102467.00;;;;5032936;28;20653;-82
2021/11/09 09:17:25;;;;;;;8.55;4.47;;;;;14.20;102462.00;;;;5034234;28;20227;-82
2021/11/09 09:19:55;;;;;;;10.30;4.80;;;;;14.30;102463.00;;;;5033304;28;20200;-82
2021/11/09 09:22:27;;;;;;;6.97;4.78;;;;;14.40;102465.00;;;;5040016;28;20235;-82
2021/11/09 09:25:07;;;;;;;10.70;4.75;;;;;14.50;102465.00;;;;5036495;28;20200;-82
2021/11/09 09:27:50;;;;;;;9.05;5.10;;;;;14.60;102468.00;;;;5035814;28;20238;-82
2021/11/09 09:30:34;;;;;;;7.97;4.72;;;;;14.60;102465.00;;;;5034602;28;20196;-82
2021/11/09 09:33:25;;;;;;;8.18;4.47;;;;;14.70;102466.00;;;;5029782;28;20243;-82
2021/11/09 09:52:38;;;;;;;9.38;4.15;;;;;15.20;102462.00;;;;4989636;28;20638;-82
2021/11/09 09:57:59;;;;;;;9.65;3.67;;;;;15.40;102457.00;;;;5010447;28;20198;-82
2021/11/09 10:00:26;;;;;;;9.43;5.38;;;;;15.40;102454.00;;;;5040565;28;20286;-83
2021/11/09 10:02:57;;;;;;;10.45;4.30;;;;;15.50;102463.00;;;;5045796;28;20234;-82
2021/11/09 10:05:27;;;;;;;10.38;4.95;;;;;15.60;102466.00;;;;5038439;28;20198;-82
2021/11/09 10:07:56;;;;;;;13.23;4.82;;;;;15.60;102463.00;;;;5036598;28;20188;-82
2021/11/09 10:10:28;;;;;;;10.35;4.45;;;;;15.70;102466.00;;;;5028821;28;20209;-82
2021/11/09 10:13:08;;;;;;;11.07;4.65;;;;;15.70;102471.00;;;;5028280;28;20196;-82
2021/11/09 10:15:37;;;;;;;10.30;4.35;;;;;15.90;102466.00;;;;5027777;28;20740;-82
2021/11/09 10:18:10;;;;;;;7.90;4.43;;;;;15.90;102462.00;;;;5041966;28;20203;-82
2021/11/09 10:20:44;;;;;;;13.38;4.15;;;;;15.90;102461.00;;;;5046066;28;20203;-82
2021/11/09 10:23:16;;;;;;;7.40;4.22;;;;;16.00;102459.00;;;;5035092;28;20653;-82
2021/11/09 10:25:44;;;;;;;9.77;4.28;;;;;16.10;102477.00;;;;5041296;28;20203;-82
2021/11/09 10:28:14;;;;;;;8.25;4.38;;;;;16.20;102469.00;;;;5048077;28;20199;-82
2021/11/09 10:30:45;;;;;;;7.88;4.38;;;;;16.20;102469.00;;;;5047489;28;20188;-82
2021/11/09 10:33:14;;;;;;;9.25;4.32;;;;;16.30;102475.00;;;;5048632;28;20196;-82
2021/11/09 10:35:43;;;;;;;8.75;4.30;;;;;16.40;102467.00;;;;5047011;28;20203;-83
2021/11/09 10:38:11;;;;;;;10.18;4.30;;;;;16.40;102473.00;;;;5045930;28;20210;-82
2021/11/09 10:40:44;;;;;;;10.20;4.63;;;;;16.50;102478.00;;;;5031192;28;20569;-82
2021/11/09 10:43:13;;;;;;;8.77;4.45;;;;;16.50;102475.00;;;;5029134;28;20311;-82
2021/11/09 10:45:42;;;;;;;9.77;4.40;;;;;16.60;102477.00;;;;5031760;28;20278;-82
2021/11/09 10:48:12;;;;;;;10.15;4.50;;;;;16.70;102479.00;;;;5048914;28;20195;-82
2021/11/09 10:50:43;;;;;;;9.68;4.53;;;;;16.70;102479.00;;;;5046170;28;20236;-81
2021/11/09 10:53:14;;;;;;;9.98;4.22;;;;;16.80;102481.00;;;;5042274;28;20580;-82
2021/11/09 10:55:56;;;;;;;6.18;4.22;;;;;16.70;102481.00;;;;5028001;28;20626;-83
2021/11/09 10:58:29;;;;;;;9.52;4.25;;;;;16.80;102483.00;;;;5028772;28;20204;-82
2021/11/09 11:04:03;;;;;;;7.28;3.97;;;;;16.90;102481.00;;;;5001425;28;20231;-83
2021/11/09 11:06:33;;;;;;;10.77;4.97;;;;;16.90;102476.00;;;;5050130;28;20199;-82
2021/11/09 11:09:14;;;;;;;12.52;5.05;;;;;17.00;102484.00;;;;5045114;28;20287;-83
2021/11/09 11:11:44;;;;;;;11.00;5.32;;;;;17.00;102476.00;;;;5046176;28;20211;-82
2021/11/09 11:14:15;;;;;;;6.68;4.05;;;;;17.00;102478.00;;;;5037546;28;20560;-82
2021/11/09 11:16:43;;;;;;;7.47;4.05;;;;;17.10;102482.00;;;;5042297;28;20213;-82
2021/11/09 11:19:12;;;;;;;11.07;4.43;;;;;17.10;102479.00;;;;5037587;28;20199;-82
2021/11/09 11:21:40;;;;;;;8.07;4.15;;;;;17.20;102472.00;;;;5031691;28;20236;-82
2021/11/09 11:24:10;;;;;;;7.85;4.00;;;;;17.20;102475.00;;;;5034839;28;20219;-82
2021/11/09 11:26:39;;;;;;;6.93;4.28;;;;;17.30;102481.00;;;;5033915;28;20753;-83
2021/11/09 11:29:07;;;;;;;9.40;4.90;;;;;17.30;102473.00;;;;5031149;28;20200;-82
2021/11/09 11:31:35;;;;;;;8.95;4.80;;;;;17.30;102478.00;;;;5042455;28;20279;-82
2021/11/09 11:34:02;;;;;;;9.93;4.25;;;;;17.40;102470.00;;;;5051236;28;20221;-82
2021/11/09 11:36:30;;;;;;;8.00;4.65;;;;;17.40;102475.00;;;;5051106;28;20207;-82
2021/11/09 11:39:03;;;;;;;10.57;4.45;;;;;17.40;102479.00;;;;5044436;28;20671;-82
2021/11/09 11:41:33;;;;;;;6.97;4.18;;;;;17.50;102479.00;;;;5031572;28;20291;-82
2021/11/09 11:44:03;;;;;;;9.43;4.43;;;;;17.50;102475.00;;;;5051259;28;20229;-82
2021/11/09 11:46:46;;;;;;;10.00;4.90;;;;;17.50;102473.00;;;;5050795;28;20191;-82
2021/11/09 11:49:22;;;;;;;10.10;4.32;;;;;17.50;102460.00;;;;5051529;28;20662;-82
2021/11/09 11:52:05;;;;;;;9.95;4.43;;;;;17.50;102452.00;;;;5044742;28;20227;-82
2021/11/09 11:54:50;;;;;;;6.93;3.50;;;;;17.50;102459.00;;;;5030878;28;20208;-83
2021/11/09 11:57:45;;;;;;;6.65;4.10;;;;;17.50;102465.00;;;;5030913;28;20569;-82
2021/11/09 12:00:41;;;;;;;12.40;4.25;;;;;17.60;102455.00;;;;5033471;28;20194;-83
2021/11/09 12:03:40;;;;;;;6.28;3.85;;;;;17.70;102447.00;;;;5038192;28;20219;-82
2021/11/09 12:06:27;;;;;;;6.25;3.78;;;;;17.70;102450.00;;;;5032209;28;20192;-82
2021/11/09 12:08:56;;;;;;;10.68;4.72;;;;;17.90;102448.00;;;;5034600;28;20573;-82
2021/11/09 12:11:40;;;;;;;9.63;5.25;;;;;17.80;102448.00;;;;5037481;28;20207;-82
2021/11/09 12:14:10;;;;;;;10.95;5.47;;;;;18.00;102443.00;;;;5050432;28;20591;-82
2021/11/09 12:16:50;;;;;;;12.13;6.88;;;;;18.00;102441.00;;;;5049864;28;20246;-82
2021/11/09 12:19:58;;;;;;;12.90;6.32;;;;;18.00;102437.00;;;;5050894;28;20598;-82
2021/11/09 12:22:41;;;;;;;10.73;5.60;;;;;18.20;102431.00;;;;5045346;28;20200;-82
2021/11/09 12:25:11;;;;;;;11.23;5.93;;;;;18.20;102435.00;;;;5042279;28;20199;-83
2021/11/09 12:28:03;;;;;;;12.18;5.82;;;;;18.20;102433.00;;;;5036997;28;20199;-82
2021/11/09 12:30:52;;;;;;;13.00;5.25;;;;;18.30;102429.00;;;;5036486;28;20624;-82
2021/11/09 12:33:22;;;;;;;15.40;6.05;;;;;18.50;102430.00;;;;5043292;28;20331;-82
2021/11/09 12:35:52;;;;;;;12.32;5.90;;;;;18.50;102434.00;;;;5030396;28;20207;-82
2021/11/09 12:38:21;;;;;;;11.60;5.18;;;;;18.50;102434.00;;;;5037452;28;20196;-82
2021/11/09 12:40:54;;;;;;;14.48;6.20;;;;;18.60;102423.00;;;;5043639;28;20200;-82
2021/11/09 12:43:43;;;;;;;8.73;5.00;;;;;18.50;102428.00;;;;5043330;28;20311;-82
2021/11/09 12:46:16;;;;;;;8.95;5.30;;;;;18.60;102424.00;;;;5044367;28;20666;-83
2021/11/09 12:48:49;;;;;;;11.65;6.60;;;;;18.60;102417.00;;;;5048045;28;20673;-83
2021/11/09 12:51:19;;;;;;;10.52;5.10;;;;;18.60;102418.00;;;;5041983;28;20220;-82
2021/11/09 12:53:48;;;;;;;9.75;5.18;;;;;18.60;102416.00;;;;5029681;28;20201;-83
2021/11/09 12:56:19;;;;;;;9.27;6.05;;;;;18.60;102408.00;;;;5029396;28;20201;-83
2021/11/09 12:58:51;;;;;;;9.43;4.90;;;;;18.60;102408.00;;;;5030085;28;20208;-82
2021/11/09 13:01:36;;;;;;;9.20;5.18;;;;;18.70;102408.00;;;;5029806;28;20206;-82
2021/11/09 13:04:23;;;;;;;8.55;4.32;;;;;18.70;102416.00;;;;5029542;28;20220;-83
2021/11/09 13:07:01;;;;;;;9.10;4.90;;;;;18.60;102406.00;;;;5030533;28;20509;-83
2021/11/09 13:09:33;;;;;;;9.50;5.50;;;;;18.70;102408.00;;;;5029398;28;20192;-82
2021/11/09 13:12:04;;;;;;;8.13;3.97;;;;;18.60;102402.00;;;;5041603;28;20203;-83
2021/11/09 13:14:36;;;;;;;7.35;3.83;;;;;18.60;102403.00;;;;5029427;28;20524;-83
2021/11/09 13:17:16;;;;;;;10.45;5.05;;;;;18.60;102404.00;;;;5035592;28;20208;-83
2021/11/09 13:19:44;;;;;;;6.95;4.63;;;;;18.60;102402.00;;;;5036324;28;20192;-83
2021/11/09 13:22:14;;;;;;;7.03;5.03;;;;;18.60;102395.00;;;;5029237;28;20661;-82
2021/11/09 13:24:54;;;;;;;9.10;4.22;;;;;18.60;102398.00;;;;5032229;28;20223;-83
2021/11/09 13:27:33;;;;;;;18.35;4.80;;;;;18.60;102397.00;;;;5038335;28;20203;-83
2021/11/09 13:30:10;;;;;;;9.38;4.90;;;;;18.50;102387.00;;;;5043108;28;20190;-83
2021/11/09 13:32:38;;;;;;;7.57;3.90;;;;;18.50;102384.00;;;;5049001;28;20200;-83
2021/11/09 13:35:15;;;;;;;12.13;4.03;;;;;18.40;102381.00;;;;5042221;28;20203;-83
2021/11/09 13:37:43;;;;;;;8.88;3.75;;;;;18.50;102377.00;;;;5041003;28;20204;-82
2021/11/09 13:40:11;;;;;;;7.65;3.47;;;;;18.50;102377.00;;;;5029001;28;20231;-83
2021/11/09 13:42:38;;;;;;;10.80;3.55;;;;;18.50;102372.00;;;;5047267;28;20288;-82
2021/11/09 13:45:14;;;;;;;8.00;2.88;;;;;18.40;102374.00;;;;5048694;28;20227;-83
2021/11/09 13:47:42;;;;;;;6.13;2.70;;;;;18.40;102375.00;;;;5048966;28;20242;-83
2021/11/09 13:50:12;;;;;;;5.53;3.30;;;;;18.40;102373.00;;;;5048323;28;20318;-82
2021/11/09 13:52:45;;;;;;;5.18;2.80;;;;;18.40;102365.00;;;;5046066;28;20198;-83
2021/11/09 13:55:13;;;;;;;8.02;3.50;;;;;18.40;102371.00;;;;5029050;28;20199;-83
2021/11/09 13:57:41;;;;;;;8.43;3.00;;;;;18.40;102369.00;;;;5046040;28;20207;-83